Time;durP1;ratioP1;P1;durP2;ratioP2;P2;SDS_P1;SDS_P2;PMS_P1;PMS_P2;Temp;Humidity;BMP_temperature;BMP_pressure;BME280_temperature;BME280_humidity;BME280_pressure;Samples;Min_cycle;Max_cycle;Signal;HPM_P1;HPM_P2
2023/05/29 00:01:31;;;;;;;26.02;5.95;;;;;;;17.07;63.07;101086.22;5058458;28;20399;-54
2023/05/29 00:03:57;;;;;;;24.33;5.40;;;;;;;17.12;63.86;101083.59;5067588;28;20064;-56
2023/05/29 00:06:24;;;;;;;16.65;5.70;;;;;;;16.99;63.38;101085.75;5051281;28;20154;-55
2023/05/29 00:08:50;;;;;;;21.05;5.97;;;;;;;16.78;63.74;101082.69;5069904;28;20082;-54
2023/05/29 00:11:17;;;;;;;21.98;5.90;;;;;;;16.75;64.62;101082.34;5072887;28;20017;-54
2023/05/29 00:13:43;;;;;;;17.95;5.25;;;;;;;16.78;63.97;101084.59;5063590;28;20032;-54
2023/05/29 00:16:09;;;;;;;23.25;5.28;;;;;;;16.82;63.80;101088.44;5072951;28;20048;-54
2023/05/29 00:18:36;;;;;;;16.60;5.72;;;;;;;16.67;65.11;101088.94;5072711;28;20099;-54
2023/05/29 00:21:03;;;;;;;23.92;6.32;;;;;;;16.66;65.09;101079.19;5072449;28;20029;-55
2023/05/29 00:23:29;;;;;;;20.85;5.78;;;;;;;16.68;64.95;101074.34;5059633;28;20036;-55
2023/05/29 00:25:55;;;;;;;17.83;5.53;;;;;;;16.63;64.50;101075.06;5052667;28;20052;-55
2023/05/29 00:28:21;;;;;;;27.52;6.30;;;;;;;16.66;64.90;101064.84;5052635;28;20530;-54
2023/05/29 00:30:48;;;;;;;20.75;5.88;;;;;;;16.53;65.06;101072.16;5052716;28;20115;-55
2023/05/29 00:33:14;;;;;;;19.10;5.78;;;;;;;16.46;65.51;101076.06;5053996;28;20096;-55
2023/05/29 00:35:40;;;;;;;21.27;6.72;;;;;;;16.21;65.61;101081.75;5053092;28;20029;-54
2023/05/29 00:38:06;;;;;;;25.35;6.82;;;;;;;16.17;66.38;101075.22;5052246;28;20033;-55
2023/05/29 00:40:33;;;;;;;17.55;5.45;;;;;;;16.15;66.36;101083.53;5052395;28;20043;-55
2023/05/29 00:42:59;;;;;;;19.70;6.10;;;;;;;16.06;66.25;101076.84;5052513;28;20024;-55
2023/05/29 00:45:26;;;;;;;17.95;5.78;;;;;;;16.04;66.81;101081.66;5050516;28;20028;-55
2023/05/29 00:47:52;;;;;;;18.42;5.55;;;;;;;16.15;67.72;101080.00;5052131;28;20489;-54
2023/05/29 00:50:21;;;;;;;20.20;6.15;;;;;;;16.15;66.83;101086.22;5052065;28;20125;-55
2023/05/29 00:52:48;;;;;;;18.58;5.75;;;;;;;16.26;66.04;101084.56;5055428;28;24183;-55
2023/05/29 00:55:15;;;;;;;16.77;5.38;;;;;;;16.19;65.45;101075.78;5052829;28;20029;-55
2023/05/29 00:57:41;;;;;;;19.98;5.25;;;;;;;16.04;66.07;101084.34;5052624;28;20056;-54
2023/05/29 01:00:09;;;;;;;12.82;5.00;;;;;;;16.06;66.25;101072.28;5051817;28;20039;-55
2023/05/29 01:02:36;;;;;;;18.92;5.93;;;;;;;15.97;66.97;101080.97;5051956;28;20469;-55
2023/05/29 01:05:03;;;;;;;20.00;6.15;;;;;;;15.86;66.42;101081.78;5052846;28;20039;-55
2023/05/29 01:07:29;;;;;;;20.05;5.75;;;;;;;15.86;67.43;101084.50;5052059;28;20065;-54
2023/05/29 01:09:56;;;;;;;25.25;6.38;;;;;;;15.91;68.06;101077.31;5066871;28;20434;-55
2023/05/29 01:12:32;;;;;;;16.77;4.97;;;;;;;16.02;67.15;101086.47;5052149;28;20029;-55
2023/05/29 01:15:35;;;;;;;17.92;5.57;;;;;;;16.05;66.43;101078.75;5050585;28;20036;-55
2023/05/29 01:18:20;;;;;;;19.67;5.28;;;;;;;16.13;66.75;101077.53;5052008;28;20029;-55
2023/05/29 01:21:08;;;;;;;18.65;5.47;;;;;;;16.22;66.46;101070.72;5052099;28;20057;-55
2023/05/29 01:24:26;;;;;;;23.52;5.95;;;;;;;16.33;66.39;101077.16;5051678;28;20049;-55
2023/05/29 01:27:01;;;;;;;25.00;6.72;;;;;;;16.12;66.54;101073.22;5047118;28;20044;-55
2023/05/29 01:29:32;;;;;;;19.00;5.90;;;;;;;16.06;66.35;101077.69;5051676;28;20025;-55
2023/05/29 01:31:59;;;;;;;18.83;6.10;;;;;;;16.09;66.44;101087.16;5051816;28;20025;-55
2023/05/29 01:34:25;;;;;;;17.27;6.28;;;;;;;16.04;66.27;101077.06;5050796;28;20029;-55
2023/05/29 01:36:52;;;;;;;29.20;7.15;;;;;;;16.08;65.76;101080.94;5063468;28;20057;-55
2023/05/29 01:39:20;;;;;;;24.02;6.00;;;;;;;15.98;66.73;101083.41;5051503;28;20452;-54
2023/05/29 01:41:47;;;;;;;26.25;7.05;;;;;;;15.86;66.71;101082.59;5069131;28;20098;-56
2023/05/29 01:44:15;;;;;;;14.43;5.18;;;;;;;15.63;67.20;101080.72;5064675;28;20025;-56
2023/05/29 01:46:43;;;;;;;24.15;6.63;;;;;;;15.62;67.87;101078.25;5053536;28;20032;-56
2023/05/29 01:49:11;;;;;;;14.25;5.05;;;;;;;15.69;68.07;101081.66;5064643;28;20032;-56
2023/05/29 01:51:38;;;;;;;19.48;5.22;;;;;;;15.73;66.92;101082.84;5064828;28;20039;-55
2023/05/29 01:54:05;;;;;;;15.75;5.35;;;;;;;15.72;67.15;101083.91;5053403;28;20028;-55
2023/05/29 01:56:31;;;;;;;14.88;4.70;;;;;;;15.67;67.17;101084.63;5057331;28;20056;-54
2023/05/29 01:58:59;;;;;;;20.33;6.18;;;;;;;15.58;67.54;101081.38;5054335;28;20060;-55
2023/05/29 02:01:26;;;;;;;17.33;5.97;;;;;;;15.42;68.12;101082.06;5051646;28;20043;-54
2023/05/29 02:03:53;;;;;;;21.77;6.80;;;;;;;15.51;68.02;101086.09;5068825;28;20473;-55
2023/05/29 02:06:20;;;;;;;15.32;6.07;;;;;;;15.42;68.06;101092.03;5071606;28;20036;-52
2023/05/29 02:08:46;;;;;;;23.23;6.10;;;;;;;15.22;68.71;101086.97;5071212;28;20040;-54
2023/05/29 02:11:13;;;;;;;18.02;5.20;;;;;;;15.26;68.88;101086.25;5071610;28;20108;-54
2023/05/29 02:13:39;;;;;;;17.08;5.70;;;;;;;15.21;69.19;101085.31;5071422;28;20491;-54
2023/05/29 02:16:05;;;;;;;17.27;6.20;;;;;;;15.03;69.72;101088.88;5071369;28;20041;-54
2023/05/29 02:18:34;;;;;;;21.80;5.40;;;;;;;15.11;69.58;101095.84;5071061;28;20027;-53
2023/05/29 02:21:01;;;;;;;19.50;6.03;;;;;;;14.98;69.69;101086.06;5070831;28;20481;-53
2023/05/29 02:23:27;;;;;;;18.60;5.95;;;;;;;14.95;70.00;101097.31;5074804;28;20028;-55
2023/05/29 02:25:53;;;;;;;20.17;5.05;;;;;;;15.03;69.14;101105.88;5071525;28;20061;-56
2023/05/29 02:28:19;;;;;;;19.98;5.97;;;;;;;14.95;69.85;101100.81;5054468;28;20127;-57
2023/05/29 02:30:46;;;;;;;15.73;5.82;;;;;;;14.95;69.90;101100.81;5053734;28;20438;-56
2023/05/29 02:33:12;;;;;;;19.40;5.97;;;;;;;14.99;70.09;101104.72;5060845;28;20036;-56
2023/05/29 02:35:38;;;;;;;28.15;6.20;;;;;;;14.92;70.41;101101.28;5055394;28;20390;-57
2023/05/29 02:38:04;;;;;;;23.70;6.70;;;;;;;14.84;70.41;101103.47;5074342;28;20017;-57
2023/05/29 02:40:31;;;;;;;18.17;6.70;;;;;;;14.65;71.12;101113.44;5074755;28;20031;-57
2023/05/29 02:42:57;;;;;;;21.75;7.03;;;;;;;14.73;71.38;101105.06;5074689;28;20505;-58
2023/05/29 02:45:23;;;;;;;23.50;6.50;;;;;;;14.85;70.47;101103.25;5074882;28;20039;-57
2023/05/29 02:47:49;;;;;;;25.05;7.03;;;;;;;14.66;71.15;101101.63;5074824;28;20020;-57
2023/05/29 02:50:16;;;;;;;20.63;5.97;;;;;;;14.70;71.05;101094.72;5073992;28;20072;-57
2023/05/29 02:52:42;;;;;;;21.15;6.78;;;;;;;14.57;71.45;101095.72;5074537;28;20107;-57
2023/05/29 02:55:08;;;;;;;19.67;6.35;;;;;;;14.59;71.42;101095.50;5073563;28;20021;-57
2023/05/29 02:57:35;;;;;;;21.20;5.85;;;;;;;14.50;71.60;101085.03;5063364;28;20120;-56
2023/05/29 03:00:05;;;;;;;20.70;5.95;;;;;;;14.41;71.79;101091.72;5055470;28;20055;-56
2023/05/29 03:02:31;;;;;;;26.35;6.78;;;;;;;14.43;71.50;101086.94;5055255;28;20032;-54
2023/05/29 03:04:57;;;;;;;20.67;6.45;;;;;;;14.41;71.77;101085.53;5052964;28;20469;-55
2023/05/29 03:07:23;;;;;;;24.88;6.65;;;;;;;14.14;72.84;101087.69;5069357;28;20463;-56
2023/05/29 03:09:50;;;;;;;18.80;6.50;;;;;;;14.16;73.00;101091.81;5054029;28;20078;-56
2023/05/29 03:12:16;;;;;;;21.60;6.57;;;;;;;14.21;73.00;101091.13;5066690;28;20017;-56
2023/05/29 03:14:42;;;;;;;25.63;7.57;;;;;;;14.03;73.67;101093.81;5074160;28;20119;-55
2023/05/29 03:17:09;;;;;;;27.58;7.50;;;;;;;14.06;73.95;101096.88;5074223;28;20032;-55
2023/05/29 03:19:35;;;;;;;20.35;5.32;;;;;;;14.18;73.70;101088.91;5073911;28;20059;-56
2023/05/29 03:22:01;;;;;;;24.15;6.30;;;;;;;14.14;73.90;101088.50;5073848;28;20564;-56
2023/05/29 03:24:27;;;;;;;24.80;6.70;;;;;;;14.14;73.81;101090.38;5070841;28;20166;-55
2023/05/29 03:26:54;;;;;;;24.38;6.63;;;;;;;14.09;73.43;101092.91;5073888;28;20526;-56
2023/05/29 03:29:20;;;;;;;18.95;5.72;;;;;;;14.08;73.64;101088.59;5073224;28;20033;-56
2023/05/29 03:31:47;;;;;;;25.48;6.00;;;;;;;14.00;74.38;101087.84;5074127;28;20527;-56
2023/05/29 03:34:13;;;;;;;28.65;6.25;;;;;;;14.05;74.29;101099.78;5073538;28;20052;-56
2023/05/29 03:36:39;;;;;;;22.33;6.20;;;;;;;13.81;74.79;101113.06;5073143;28;20021;-56
2023/05/29 03:39:06;;;;;;;16.45;5.55;;;;;;;13.88;74.46;101111.16;5050902;28;20190;-56
2023/05/29 03:41:32;;;;;;;16.83;5.28;;;;;;;13.95;74.20;101119.97;5054905;28;20278;-56
2023/05/29 03:43:59;;;;;;;23.98;6.03;;;;;;;13.87;74.59;101114.84;5052014;28;20111;-56
2023/05/29 03:46:25;;;;;;;16.50;5.93;;;;;;;13.86;75.18;101113.22;5071318;28;20444;-56
2023/05/29 03:48:51;;;;;;;24.70;6.40;;;;;;;13.79;74.80;101108.94;5073235;28;20485;-56
2023/05/29 03:51:17;;;;;;;16.58;5.93;;;;;;;13.85;74.49;101114.25;5073378;28;20060;-56
2023/05/29 03:53:44;;;;;;;18.65;5.70;;;;;;;13.82;74.73;101113.88;5073418;28;20047;-56
2023/05/29 03:56:10;;;;;;;16.50;5.00;;;;;;;13.73;74.82;101116.03;5073388;28;20465;-56
2023/05/29 03:58:36;;;;;;;22.88;6.13;;;;;;;13.76;75.19;101118.25;5061146;28;20512;-56
2023/05/29 04:01:03;;;;;;;18.73;5.60;;;;;;;13.83;75.33;101112.84;5066116;28;20103;-56
2023/05/29 04:03:30;;;;;;;13.52;5.57;;;;;;;13.67;76.03;101122.28;5072986;28;20024;-56
2023/05/29 04:05:56;;;;;;;18.05;6.85;;;;;;;13.54;76.52;101127.75;5073494;28;20472;-56
2023/05/29 04:08:23;;;;;;;16.60;6.18;;;;;;;13.59;76.09;101125.25;5072968;28;20051;-56
2023/05/29 04:10:53;;;;;;;17.08;6.43;;;;;;;13.51;76.69;101125.53;5072873;28;20029;-57
2023/05/29 04:13:20;;;;;;;17.02;6.07;;;;;;;13.50;76.86;101115.81;5071674;28;20386;-57
2023/05/29 04:15:47;;;;;;;32.45;6.78;;;;;;;13.45;77.01;101114.59;5073085;28;20032;-56
2023/05/29 04:18:13;;;;;;;24.38;7.25;;;;;;;13.39;77.22;101136.97;5072949;28;20115;-57
2023/05/29 04:20:40;;;;;;;20.70;6.85;;;;;;;13.40;77.75;101132.44;5072559;28;20505;-57
2023/05/29 04:23:06;;;;;;;23.55;7.07;;;;;;;13.36;78.00;101115.06;5061065;28;20563;-57
2023/05/29 04:25:34;;;;;;;21.38;6.07;;;;;;;13.40;77.99;101125.19;5057368;28;20066;-56
2023/05/29 04:28:02;;;;;;;17.92;6.20;;;;;;;13.42;77.27;101128.47;5071196;28;20039;-56
2023/05/29 04:30:29;;;;;;;24.45;6.95;;;;;;;13.38;77.57;101132.66;5052018;28;20091;-56
2023/05/29 04:32:55;;;;;;;14.82;6.80;;;;;;;13.23;78.28;101148.25;5052123;28;20078;-56
2023/05/29 04:35:21;;;;;;;19.35;6.88;;;;;;;13.25;78.23;101146.16;5052050;28;20025;-56
2023/05/29 04:37:48;;;;;;;20.05;6.97;;;;;;;13.24;78.56;101141.00;5052100;28;20103;-56
2023/05/29 04:40:17;;;;;;;18.05;6.80;;;;;;;13.22;78.48;101151.16;5052538;28;20025;-56
2023/05/29 04:42:46;;;;;;;14.52;5.85;;;;;;;13.31;77.82;101156.03;5052025;28;20049;-56
2023/05/29 04:45:12;;;;;;;16.90;6.40;;;;;;;13.21;78.02;101155.69;5060991;28;20025;-56
2023/05/29 04:47:43;;;;;;;20.35;6.28;;;;;;;13.24;78.11;101159.81;5072214;28;20024;-55
2023/05/29 04:50:17;;;;;;;18.35;5.40;;;;;;;13.16;78.54;101163.56;5072041;28;20032;-56
2023/05/29 04:52:44;;;;;;;19.17;6.23;;;;;;;13.14;78.99;101162.94;5072011;28;20116;-56
2023/05/29 04:55:10;;;;;;;17.45;6.03;;;;;;;13.15;79.03;101162.72;5071700;28;20086;-56
2023/05/29 04:57:37;;;;;;;20.45;6.82;;;;;;;13.14;79.36;101166.44;5071916;28;20441;-56
2023/05/29 05:00:13;;;;;;;15.80;6.85;;;;;;;13.09;79.38;101152.81;5069409;28;20115;-56
2023/05/29 05:02:45;;;;;;;23.25;6.93;;;;;;;13.04;79.52;101162.56;5071934;28;20016;-55
2023/05/29 05:05:12;;;;;;;17.48;6.55;;;;;;;13.10;79.14;101167.09;5071801;28;20035;-55
2023/05/29 05:07:38;;;;;;;23.55;6.90;;;;;;;13.00;79.69;101175.63;5071618;28;20020;-56
2023/05/29 05:10:06;;;;;;;19.15;6.00;;;;;;;12.99;79.77;101179.31;5071632;28;20029;-56
2023/05/29 05:12:35;;;;;;;19.13;5.95;;;;;;;12.99;79.96;101182.00;5071860;28;20492;-56
2023/05/29 05:15:01;;;;;;;22.40;5.88;;;;;;;13.00;79.45;101186.38;5070721;28;20082;-55
2023/05/29 05:17:28;;;;;;;19.65;6.47;;;;;;;13.05;79.01;101189.25;5057056;28;20028;-55
2023/05/29 05:19:54;;;;;;;23.33;6.65;;;;;;;13.05;79.17;101193.81;5051118;28;20161;-56
2023/05/29 05:22:20;;;;;;;16.52;5.57;;;;;;;13.00;79.28;101196.31;5066109;28;20072;-56
2023/05/29 05:24:47;;;;;;;14.10;5.50;;;;;;;13.15;78.61;101191.47;5071541;28;20086;-56
2023/05/29 05:27:14;;;;;;;21.45;5.88;;;;;;;13.04;78.99;101197.50;5071535;28;20024;-56
2023/05/29 05:29:40;;;;;;;16.63;5.30;;;;;;;13.04;79.36;101198.31;5070720;28;20075;-56
2023/05/29 05:32:06;;;;;;;16.45;5.95;;;;;;;13.06;79.66;101200.81;5071327;28;20650;-56
2023/05/29 05:34:33;;;;;;;17.10;5.57;;;;;;;13.15;79.35;101191.47;5071587;28;20024;-56
2023/05/29 05:36:59;;;;;;;19.67;5.90;;;;;;;13.06;79.54;101196.28;5063618;28;20359;-56
2023/05/29 05:39:26;;;;;;;13.88;5.47;;;;;;;13.05;79.33;101191.94;5051000;28;20210;-56
2023/05/29 05:41:52;;;;;;;16.15;5.72;;;;;;;12.95;80.12;101184.31;5051219;28;20111;-56
2023/05/29 05:44:18;;;;;;;15.50;6.18;;;;;;;13.08;79.90;101188.00;5051221;28;20166;-56
2023/05/29 05:46:45;;;;;;;20.52;5.72;;;;;;;13.15;79.54;101178.03;5069346;28;20028;-56
2023/05/29 05:49:12;;;;;;;18.85;6.40;;;;;;;13.06;80.38;101190.91;5071152;28;20035;-56
2023/05/29 05:51:38;;;;;;;17.45;6.20;;;;;;;13.12;80.06;101181.16;5071266;28;20020;-56
2023/05/29 05:54:04;;;;;;;16.48;6.30;;;;;;;13.10;80.38;101183.22;5072097;28;20023;-56
2023/05/29 05:56:30;;;;;;;19.35;6.22;;;;;;;13.03;80.80;101188.63;5073458;28;20108;-56
2023/05/29 05:58:57;;;;;;;18.50;5.80;;;;;;;13.14;80.33;101187.13;5075030;28;20504;-56
2023/05/29 06:01:23;;;;;;;20.23;5.55;;;;;;;13.13;79.84;101196.22;5074882;28;20449;-56
2023/05/29 06:03:49;;;;;;;19.60;5.72;;;;;;;13.10;80.45;101185.91;5074166;28;20107;-56
2023/05/29 06:06:17;;;;;;;17.38;5.20;;;;;;;13.14;80.11;101187.94;5063940;28;20094;-56
2023/05/29 06:08:45;;;;;;;19.75;5.82;;;;;;;13.16;80.24;101195.81;5057127;28;20033;-56
2023/05/29 06:11:12;;;;;;;15.50;5.70;;;;;;;13.14;80.35;101197.88;5054729;28;20359;-56
2023/05/29 06:13:38;;;;;;;13.98;5.00;;;;;;;13.25;80.18;101183.78;5063376;28;20025;-56
2023/05/29 06:16:04;;;;;;;17.27;5.43;;;;;;;13.12;81.03;101189.22;5056959;28;20052;-56
2023/05/29 06:18:31;;;;;;;15.27;4.78;;;;;;;13.12;81.13;101195.41;5068474;28;20495;-57
2023/05/29 06:20:57;;;;;;;19.88;6.38;;;;;;;13.16;80.91;101190.44;5074908;28;20119;-58
2023/05/29 06:23:23;;;;;;;16.55;5.55;;;;;;;13.20;80.59;101189.78;5068121;28;20036;-56
2023/05/29 06:25:49;;;;;;;14.68;5.68;;;;;;;13.24;80.87;101192.06;5053835;28;20049;-57
2023/05/29 06:28:15;;;;;;;17.55;5.03;;;;;;;13.30;80.43;101189.34;5054602;28;20087;-57
2023/05/29 06:30:42;;;;;;;15.65;5.30;;;;;;;13.14;80.94;101187.94;5054539;28;20032;-57
2023/05/29 06:33:08;;;;;;;15.23;5.30;;;;;;;13.18;80.71;101182.97;5065958;28;20539;-57
2023/05/29 06:35:34;;;;;;;14.70;5.13;;;;;;;13.11;80.78;101184.88;5074504;28;20082;-56
2023/05/29 06:38:00;;;;;;;12.77;4.72;;;;;;;13.11;80.53;101184.88;5074441;28;20028;-56
2023/05/29 06:40:27;;;;;;;13.95;5.18;;;;;;;13.08;80.99;101180.75;5074462;28;20670;-57
2023/05/29 06:42:53;;;;;;;13.95;4.68;;;;;;;13.16;80.56;101183.19;5054581;28;20131;-57
2023/05/29 06:45:19;;;;;;;16.30;4.80;;;;;;;13.03;81.19;101185.13;5054178;28;20032;-57
2023/05/29 06:47:45;;;;;;;11.95;4.05;;;;;;;13.06;80.89;101179.31;5067252;28;20056;-57
2023/05/29 06:50:11;;;;;;;13.02;4.60;;;;;;;13.09;80.46;101192.31;5054343;28;20359;-57
2023/05/29 06:52:38;;;;;;;12.05;4.15;;;;;;;13.05;80.07;101191.94;5054280;28;20057;-57
2023/05/29 06:55:05;;;;;;;13.13;4.70;;;;;;;13.00;80.34;101190.94;5057437;28;20025;-56
2023/05/29 06:57:31;;;;;;;16.40;4.30;;;;;;;12.97;80.73;101180.59;5071298;28;20025;-57
2023/05/29 06:59:58;;;;;;;8.93;3.92;;;;;;;13.05;79.95;101178.50;5070662;28;20035;-56
2023/05/29 07:02:24;;;;;;;10.82;4.07;;;;;;;13.02;80.41;101188.84;5068918;28;20033;-57
2023/05/29 07:04:50;;;;;;;8.35;4.05;;;;;;;13.06;80.56;101180.16;5074231;28;20567;-56
2023/05/29 07:07:17;;;;;;;12.35;3.85;;;;;;;13.04;80.59;101182.19;5073999;28;20032;-57
2023/05/29 07:09:43;;;;;;;10.73;4.53;;;;;;;13.06;80.26;101179.31;5073511;28;20016;-57
2023/05/29 07:12:12;;;;;;;10.18;3.28;;;;;;;12.97;80.88;101177.91;5073868;28;20028;-57
2023/05/29 07:14:39;;;;;;;7.68;2.80;;;;;;;13.02;80.47;101172.72;5073969;28;20024;-57
2023/05/29 07:17:05;;;;;;;7.80;3.17;;;;;;;12.95;80.73;101187.00;5073824;28;20024;-57
2023/05/29 07:19:34;;;;;;;11.18;3.15;;;;;;;13.05;80.04;101186.56;5054393;28;20040;-56
2023/05/29 07:22:01;;;;;;;8.07;2.90;;;;;;;13.12;79.79;101181.16;5073389;28;20101;-57
2023/05/29 07:24:27;;;;;;;14.68;3.80;;;;;;;13.07;79.99;101180.97;5073565;28;20048;-57
2023/05/29 07:26:55;;;;;;;7.97;3.22;;;;;;;13.04;79.90;101176.81;5073761;28;20017;-57
2023/05/29 07:29:23;;;;;;;6.55;3.10;;;;;;;12.92;80.64;101174.00;5072389;28;20024;-57
2023/05/29 07:31:50;;;;;;;8.18;3.10;;;;;;;12.82;80.93;101178.97;5073320;28;20063;-56
2023/05/29 07:34:17;;;;;;;7.47;3.00;;;;;;;12.94;80.80;101181.84;5069256;28;20032;-56
2023/05/29 07:37:02;;;;;;;13.25;4.05;;;;;;;12.91;81.17;101176.91;5058094;28;20021;-56
2023/05/29 07:39:29;;;;;;;11.35;4.32;;;;;;;12.84;81.57;101181.47;5064582;28;20025;-56
2023/05/29 07:41:55;;;;;;;13.65;4.20;;;;;;;12.89;81.33;101179.81;5053264;28;20033;-57
2023/05/29 07:44:22;;;;;;;9.60;3.20;;;;;;;12.99;80.25;101173.13;5069699;28;20032;-56
2023/05/29 07:46:48;;;;;;;8.68;3.50;;;;;;;12.86;81.08;101168.66;5073050;28;20021;-56
2023/05/29 07:49:15;;;;;;;13.55;3.47;;;;;;;12.81;80.95;101171.16;5073006;28;20031;-57
2023/05/29 07:51:41;;;;;;;8.07;3.60;;;;;;;12.85;80.94;101167.00;5073104;28;20103;-57
2023/05/29 07:54:08;;;;;;;12.23;3.63;;;;;;;12.88;80.50;101171.94;5071989;28;20031;-57
2023/05/29 07:56:34;;;;;;;9.02;3.28;;;;;;;12.89;80.50;101168.25;5073003;28;20025;-57
2023/05/29 07:59:01;;;;;;;10.63;3.42;;;;;;;12.89;80.78;101171.75;5071284;28;20031;-57
2023/05/29 08:01:27;;;;;;;9.30;3.55;;;;;;;12.84;81.12;101171.56;5073327;28;20111;-57
2023/05/29 08:03:53;;;;;;;6.60;3.05;;;;;;;12.74;81.55;101168.50;5053275;28;20439;-57
2023/05/29 08:06:20;;;;;;;5.65;2.47;;;;;;;12.78;81.22;101158.97;5052908;28;20020;-57
2023/05/29 08:08:46;;;;;;;7.50;3.15;;;;;;;12.86;80.65;101163.28;5052479;28;20109;-57
2023/05/29 08:11:12;;;;;;;6.30;3.22;;;;;;;12.76;80.95;101161.03;5052707;28;20096;-57
2023/05/29 08:13:38;;;;;;;7.35;2.72;;;;;;;12.82;80.65;101162.88;5052649;28;20478;-57
2023/05/29 08:16:05;;;;;;;7.35;3.65;;;;;;;12.79;80.84;101157.94;5052818;28;20029;-57
2023/05/29 08:18:32;;;;;;;6.95;2.90;;;;;;;12.76;81.30;101165.59;5068209;28;20107;-57
2023/05/29 08:20:59;;;;;;;11.32;3.60;;;;;;;12.67;81.53;101165.00;5071674;28;20485;-57
2023/05/29 08:23:25;;;;;;;8.13;3.22;;;;;;;12.74;81.56;101168.50;5072621;28;20541;-57
2023/05/29 08:25:51;;;;;;;9.55;3.10;;;;;;;12.68;81.75;101169.34;5071011;28;20075;-57
2023/05/29 08:28:17;;;;;;;9.70;3.47;;;;;;;12.61;81.87;101165.88;5072111;28;20115;-57
2023/05/29 08:30:44;;;;;;;8.10;3.00;;;;;;;12.64;81.08;101165.41;5072488;28;20415;-57
2023/05/29 08:33:10;;;;;;;9.27;3.15;;;;;;;12.68;81.05;101162.09;5072281;28;20025;-57
2023/05/29 08:35:36;;;;;;;6.97;2.95;;;;;;;12.64;81.48;101165.41;5070508;28;20075;-57
2023/05/29 08:38:02;;;;;;;6.82;2.92;;;;;;;12.56;81.65;101161.13;5071738;28;20052;-56
2023/05/29 08:40:29;;;;;;;8.43;2.33;;;;;;;12.69;81.14;101152.19;5071023;28;20389;-57
2023/05/29 08:42:58;;;;;;;3.95;2.13;;;;;;;12.62;81.33;101146.84;5072044;28;20058;-57
2023/05/29 08:45:25;;;;;;;7.30;2.90;;;;;;;12.59;81.92;101146.44;5069263;28;20077;-57
2023/05/29 08:47:53;;;;;;;5.97;2.97;;;;;;;12.64;82.02;101149.31;5052402;28;20017;-57
2023/05/29 08:50:21;;;;;;;7.88;3.28;;;;;;;12.65;81.89;101138.34;5052156;28;20025;-57
2023/05/29 08:52:47;;;;;;;5.30;2.80;;;;;;;12.60;82.56;101142.72;5052033;28;20598;-57
2023/05/29 08:55:14;;;;;;;8.00;2.65;;;;;;;12.63;82.52;101136.94;5065867;28;20032;-57
2023/05/29 08:57:43;;;;;;;5.80;2.03;;;;;;;12.67;82.56;101138.16;5072046;28;20101;-57
2023/05/29 09:00:15;;;;;;;8.73;2.55;;;;;;;12.66;82.17;101140.03;5071019;28;20064;-56
2023/05/29 09:02:45;;;;;;;5.32;2.67;;;;;;;12.58;82.60;101134.88;5053781;28;20029;-56
2023/05/29 09:05:12;;;;;;;6.82;2.88;;;;;;;12.51;82.94;101130.56;5051350;28;20158;-56
2023/05/29 09:07:39;;;;;;;6.15;2.70;;;;;;;12.60;82.20;101131.97;5051240;28;20128;-56
2023/05/29 09:10:07;;;;;;;4.65;2.40;;;;;;;12.57;82.73;101132.41;5051772;28;20445;-56
2023/05/29 09:12:34;;;;;;;6.63;2.70;;;;;;;12.62;83.37;101124.53;5051736;28;20032;-55
2023/05/29 09:15:01;;;;;;;5.63;1.90;;;;;;;12.64;81.90;101128.66;5051580;28;20035;-56
2023/05/29 09:17:33;;;;;;;8.65;2.75;;;;;;;12.53;82.32;101120.44;5051187;28;20485;-56
2023/05/29 09:20:00;;;;;;;4.38;2.00;;;;;;;12.48;82.14;101131.81;5062262;28;20036;-55
2023/05/29 09:22:26;;;;;;;5.13;2.00;;;;;;;12.48;82.26;101128.28;5059039;28;20048;-56
2023/05/29 09:24:52;;;;;;;4.57;2.33;;;;;;;12.48;82.24;101133.66;5064321;28;20043;-56
2023/05/29 09:27:20;;;;;;;6.90;2.08;;;;;;;12.40;82.65;101132.88;5071872;28;20032;-56
2023/05/29 09:29:46;;;;;;;8.02;1.98;;;;;;;12.51;82.12;101133.25;5052634;28;20040;-56
2023/05/29 09:32:16;;;;;;;6.15;2.17;;;;;;;12.63;81.86;101136.94;5051525;28;20018;-56
2023/05/29 09:34:44;;;;;;;4.15;1.92;;;;;;;12.61;81.89;101136.31;5051382;28;20025;-55
2023/05/29 09:37:11;;;;;;;2.53;1.52;;;;;;;12.53;82.16;101142.72;5066622;28;20036;-55
2023/05/29 09:39:48;;;;;;;6.03;2.13;;;;;;;12.53;82.49;101131.16;5071047;28;20125;-55
2023/05/29 09:42:16;;;;;;;3.13;1.70;;;;;;;12.52;82.57;101134.91;5051470;28;20028;-55
2023/05/29 09:44:44;;;;;;;3.17;1.58;;;;;;;12.58;82.52;101134.03;5051351;28;20096;-56
2023/05/29 09:47:15;;;;;;;4.55;2.03;;;;;;;12.61;82.19;101128.28;5059848;28;20060;-55
2023/05/29 09:49:43;;;;;;;3.85;1.83;;;;;;;12.58;82.90;101124.13;5070958;28;20032;-56
2023/05/29 09:52:15;;;;;;;8.10;2.63;;;;;;;12.68;82.24;101123.69;5070197;28;20021;-56
2023/05/29 09:54:45;;;;;;;4.20;1.98;;;;;;;12.73;82.76;101123.88;5071644;28;20025;-56
2023/05/29 09:57:16;;;;;;;3.95;1.80;;;;;;;12.75;82.53;101111.03;5071120;28;20024;-56
2023/05/29 09:59:51;;;;;;;5.05;1.98;;;;;;;12.69;82.90;101114.59;5070875;28;20473;-55
2023/05/29 10:02:18;;;;;;;6.73;2.20;;;;;;;12.62;83.65;101117.31;5071281;28;20024;-56
2023/05/29 10:04:44;;;;;;;4.22;1.95;;;;;;;12.67;82.78;101112.13;5071192;28;20640;-55
2023/05/29 10:07:24;;;;;;;3.15;1.45;;;;;;;12.58;82.79;101123.31;5070997;28;20020;-56
2023/05/29 10:09:58;;;;;;;3.83;1.95;;;;;;;12.67;82.25;101138.16;5058417;28;20132;-56
2023/05/29 10:12:27;;;;;;;3.17;1.73;;;;;;;12.69;82.01;101128.84;5060152;28;20025;-56
2023/05/29 10:14:59;;;;;;;2.42;1.42;;;;;;;12.63;82.49;101132.38;5070877;28;20064;-56
2023/05/29 10:17:36;;;;;;;4.63;2.30;;;;;;;12.59;83.32;101124.94;5052392;28;20104;-55
2023/05/29 10:20:09;;;;;;;4.80;1.75;;;;;;;12.63;82.61;101127.00;5050754;28;20033;-55
2023/05/29 10:22:44;;;;;;;3.08;1.42;;;;;;;12.58;82.56;101123.31;5050827;28;20083;-55
2023/05/29 10:25:13;;;;;;;3.83;1.70;;;;;;;12.50;82.57;101128.94;5051323;28;20033;-55
2023/05/29 10:27:39;;;;;;;4.60;1.90;;;;;;;12.47;83.34;101129.34;5050734;28;20021;-56
2023/05/29 10:30:14;;;;;;;4.47;1.70;;;;;;;12.47;83.64;101126.66;5066891;28;20064;-55
2023/05/29 10:33:17;;;;;;;6.50;1.90;;;;;;;12.54;82.62;101128.25;5050985;28;20537;-56
2023/05/29 10:35:58;;;;;;;2.92;1.70;;;;;;;12.56;82.21;101125.38;5049776;28;20127;-55
2023/05/29 10:38:26;;;;;;;8.27;2.33;;;;;;;12.54;82.29;101124.75;5049381;28;20150;-55
2023/05/29 10:40:52;;;;;;;3.53;2.15;;;;;;;12.62;81.61;101124.53;5050516;28;20031;-55
2023/05/29 10:43:32;;;;;;;3.42;1.63;;;;;;;12.55;82.17;101129.94;5052480;28;20074;-55
2023/05/29 10:45:59;;;;;;;6.20;2.30;;;;;;;12.55;82.42;101129.13;5054451;28;20033;-55
2023/05/29 10:48:28;;;;;;;5.78;2.47;;;;;;;12.50;83.14;101123.56;5059879;28;20021;-56
2023/05/29 10:50:56;;;;;;;6.75;2.60;;;;;;;12.48;83.41;101118.38;5054037;28;20029;-55
2023/05/29 10:53:32;;;;;;;6.40;2.30;;;;;;;12.65;82.04;101124.09;5054104;28;20397;-55
2023/05/29 10:56:02;;;;;;;3.20;2.20;;;;;;;12.53;82.25;101123.94;5069283;28;20503;-56
2023/05/29 10:58:30;;;;;;;4.20;1.63;;;;;;;12.56;80.85;101128.06;5054066;28;20481;-56
2023/05/29 11:00:58;;;;;;;3.25;1.35;;;;;;;12.49;80.86;101124.56;5056843;28;20064;-55
2023/05/29 11:03:30;;;;;;;4.30;1.70;;;;;;;12.58;80.49;101134.88;5054266;28;20033;-57
2023/05/29 11:06:10;;;;;;;2.42;1.70;;;;;;;12.53;80.95;101136.53;5053753;28;20025;-55
2023/05/29 11:08:48;;;;;;;4.05;2.10;;;;;;;12.51;80.89;101133.25;5064143;28;20036;-55
2023/05/29 11:11:37;;;;;;;6.68;2.13;;;;;;;12.50;81.27;101124.38;5073900;28;20046;-56
2023/05/29 11:14:05;;;;;;;4.32;1.90;;;;;;;12.43;82.25;101127.06;5073951;28;20062;-55
2023/05/29 11:16:32;;;;;;;3.45;1.73;;;;;;;12.56;82.26;101126.22;5073730;28;20105;-56
2023/05/29 11:19:03;;;;;;;4.63;1.85;;;;;;;12.57;82.38;101132.41;5053330;28;20124;-56
2023/05/29 11:21:52;;;;;;;3.45;1.98;;;;;;;12.55;82.81;101129.94;5053460;28;20512;-55
2023/05/29 11:24:27;;;;;;;2.60;1.90;;;;;;;12.53;83.08;101142.72;5059117;28;20033;-56